Chesapeake Beach, Maryland
Current Conditions -  °F | °C
As of 11:54 AM on Monday 22 Dec 2014 (Local Time) from KNAK Reporting Station
Light Rain Light Rain  
Wind Chill: 30°   Ceiling: 7000
Heat Index: 35°   Visibility: 7mi
Dew Point: 28°   Wind: 6mph
Humidity: 76%   Direction: 20°NNE
Pressure: 30.26"   Gusts: NA
Location:  38.69°N, 76.53°W
Report Text: KNAK 221654Z AUTO 02005KT 7SM -RA FEW048 FEW055 OVC070 02/M02 A3026 RMK AO2 UPB33E46RAB46 SLP249 P0000 T00171022
Loading
Personal Weather Stations






























Interactive Weather Map New forecast layout! Learn more

10-Day Weather Forecast

Advertisements
Track Severe Weather on mobile